<?xml version="1.0" encoding="UTF-8" standalone="no" ?>
<gpx xmlns="http://www.topografix.com/GPX/1/1" xmlns:xsi="http://www.w3.org/2001/XMLSchema-instance" xsi:schemaLocation="http://www.topografix.com/GPX/1/1 http://www.topografix.com/GPX/1/1/gpx.xsd" version="1.1" creator="VisuGPX - https://www.visugpx.com">
  <metadata>
    <name>2026-06-08-46-Puy l'Evèque </name>
    <desc><![CDATA[Randonnée de 9 km sans difficulté, entre vignobles et chais, entre rivière et vues sur le village, ne pas oublier de visiter ce joli village, avec ses vieilles demeures et ses rues étroites pleines de surprises]]></desc>
  </metadata>
  <trk>
    <name><![CDATA[Puy l'Evèque 2026 Rando Douce]]></name>
    <extensions>
      <line xmlns="http://www.topografix.com/GPX/gpx_style/0/2">
        <color>0000FF</color>
        <opacity>1</opacity>
        <width>4</width>
      </line>
    </extensions>
    <trkseg>
      <trkpt lat="44.5037" lon="1.13411">
        <ele>81.1</ele>
        <time>2015-09-30T23:46:50Z</time>
      </trkpt>
      <trkpt lat="44.50303" lon="1.13486">
        <ele>79.1</ele>
        <time>2015-09-30T23:48:50Z</time>
      </trkpt>
      <trkpt lat="44.50222" lon="1.13526">
        <ele>78.3</ele>
      </trkpt>
      <trkpt lat="44.50178" lon="1.13556">
        <ele>82.3</ele>
        <time>2015-09-30T23:50:50Z</time>
      </trkpt>
      <trkpt lat="44.50131" lon="1.13457">
        <ele>84</ele>
        <time>2015-09-30T23:52:50Z</time>
      </trkpt>
      <trkpt lat="44.50117" lon="1.13442">
        <ele>85</ele>
      </trkpt>
      <trkpt lat="44.50102" lon="1.13446">
        <ele>85</ele>
        <time>2015-09-30T23:54:50Z</time>
      </trkpt>
      <trkpt lat="44.50002" lon="1.13489">
        <ele>83</ele>
        <time>2015-09-30T23:56:50Z</time>
      </trkpt>
      <trkpt lat="44.49908" lon="1.13506">
        <ele>82.1</ele>
      </trkpt>
      <trkpt lat="44.49778" lon="1.13521">
        <ele>82</ele>
        <time>2015-09-30T23:58:50Z</time>
      </trkpt>
      <trkpt lat="44.49666" lon="1.13541">
        <ele>83</ele>
      </trkpt>
      <trkpt lat="44.49593" lon="1.13541">
        <ele>83</ele>
        <time>2015-10-01T00:00:50Z</time>
      </trkpt>
      <trkpt lat="44.49519" lon="1.13548">
        <ele>83</ele>
        <time>2015-10-01T00:02:50Z</time>
      </trkpt>
      <trkpt lat="44.49426" lon="1.13574">
        <ele>82.6</ele>
        <time>2015-10-01T00:04:50Z</time>
      </trkpt>
      <trkpt lat="44.4924" lon="1.13528">
        <ele>83</ele>
        <time>2015-10-01T00:08:50Z</time>
      </trkpt>
      <trkpt lat="44.49028" lon="1.13498">
        <ele>83</ele>
      </trkpt>
      <trkpt lat="44.48985" lon="1.13398">
        <ele>83.8</ele>
      </trkpt>
      <trkpt lat="44.49017" lon="1.1306">
        <ele>86.3</ele>
      </trkpt>
      <trkpt lat="44.49378" lon="1.13164">
        <ele>86.1</ele>
        <time>2015-10-01T00:10:50Z</time>
      </trkpt>
      <trkpt lat="44.49395" lon="1.12991">
        <ele>87.1</ele>
        <time>2015-10-01T00:12:50Z</time>
      </trkpt>
      <trkpt lat="44.49411" lon="1.12987">
        <ele>87.4</ele>
      </trkpt>
      <trkpt lat="44.49415" lon="1.12977">
        <ele>87.8</ele>
      </trkpt>
      <trkpt lat="44.49414" lon="1.12907">
        <ele>92.3</ele>
      </trkpt>
      <trkpt lat="44.49425" lon="1.12888">
        <ele>92.7</ele>
        <time>2015-10-01T00:14:50Z</time>
      </trkpt>
      <trkpt lat="44.49414" lon="1.12833">
        <ele>93</ele>
      </trkpt>
      <trkpt lat="44.49397" lon="1.12736">
        <ele>93.4</ele>
        <time>2015-10-01T00:20:50Z</time>
      </trkpt>
      <trkpt lat="44.49389" lon="1.12699">
        <ele>94.9</ele>
      </trkpt>
      <trkpt lat="44.49383" lon="1.12665">
        <ele>97.6</ele>
      </trkpt>
      <trkpt lat="44.49369" lon="1.12633">
        <ele>101.3</ele>
      </trkpt>
      <trkpt lat="44.4936" lon="1.12592">
        <ele>104.7</ele>
      </trkpt>
      <trkpt lat="44.49356" lon="1.12547">
        <ele>106</ele>
        <time>2015-10-01T00:22:50Z</time>
      </trkpt>
      <trkpt lat="44.49318" lon="1.12532">
        <ele>106</ele>
      </trkpt>
      <trkpt lat="44.4923" lon="1.12513">
        <ele>105.4</ele>
        <time>2015-10-01T00:24:50Z</time>
      </trkpt>
      <trkpt lat="44.49221" lon="1.12496">
        <ele>105.9</ele>
      </trkpt>
      <trkpt lat="44.49223" lon="1.12454">
        <ele>106</ele>
        <time>2015-10-01T00:26:50Z</time>
      </trkpt>
      <trkpt lat="44.49216" lon="1.12434">
        <ele>105.5</ele>
      </trkpt>
      <trkpt lat="44.49135" lon="1.12408">
        <ele>104</ele>
      </trkpt>
      <trkpt lat="44.4908" lon="1.124">
        <ele>104.6</ele>
      </trkpt>
      <trkpt lat="44.49033" lon="1.12398">
        <ele>105.6</ele>
      </trkpt>
      <trkpt lat="44.4895" lon="1.12361">
        <ele>108.6</ele>
        <time>2015-10-01T00:28:50Z</time>
      </trkpt>
      <trkpt lat="44.48968" lon="1.12238">
        <ele>108</ele>
        <time>2015-10-01T01:10:50Z</time>
      </trkpt>
      <trkpt lat="44.48976" lon="1.12017">
        <ele>110</ele>
      </trkpt>
      <trkpt lat="44.48975" lon="1.11946">
        <ele>110.8</ele>
        <time>2015-10-01T01:12:50Z</time>
      </trkpt>
      <trkpt lat="44.4897" lon="1.11805">
        <ele>115.3</ele>
        <time>2015-10-01T01:14:50Z</time>
      </trkpt>
      <trkpt lat="44.49039" lon="1.11646">
        <ele>115</ele>
      </trkpt>
      <trkpt lat="44.49085" lon="1.11511">
        <ele>111.8</ele>
        <time>2015-10-01T01:16:50Z</time>
      </trkpt>
      <trkpt lat="44.49119" lon="1.11363">
        <ele>110.4</ele>
      </trkpt>
      <trkpt lat="44.49135" lon="1.11248">
        <ele>109</ele>
        <time>2015-10-01T01:24:50Z</time>
      </trkpt>
      <trkpt lat="44.49152" lon="1.11168">
        <ele>111.5</ele>
      </trkpt>
      <trkpt lat="44.4917" lon="1.11107">
        <ele>111.9</ele>
        <time>2015-10-01T01:28:50Z</time>
      </trkpt>
      <trkpt lat="44.49201" lon="1.11028">
        <ele>110.6</ele>
        <time>2015-10-01T01:30:50Z</time>
      </trkpt>
      <trkpt lat="44.49234" lon="1.10939">
        <ele>110</ele>
        <time>2015-10-01T01:32:50Z</time>
      </trkpt>
      <trkpt lat="44.49291" lon="1.10805">
        <ele>110</ele>
        <time>2015-10-01T01:34:50Z</time>
      </trkpt>
      <trkpt lat="44.49349" lon="1.10838">
        <ele>102.9</ele>
        <time>2015-10-01T01:36:50Z</time>
      </trkpt>
      <trkpt lat="44.49387" lon="1.10828">
        <ele>98.7</ele>
        <time>2015-10-01T01:38:50Z</time>
      </trkpt>
      <trkpt lat="44.49468" lon="1.10891">
        <ele>94.2</ele>
        <time>2015-10-01T01:40:50Z</time>
      </trkpt>
      <trkpt lat="44.49576" lon="1.10924">
        <ele>95.8</ele>
        <time>2015-10-01T01:42:50Z</time>
      </trkpt>
      <trkpt lat="44.49569" lon="1.10864">
        <ele>95.5</ele>
      </trkpt>
      <trkpt lat="44.49606" lon="1.10861">
        <ele>96</ele>
        <time>2015-10-01T01:46:50Z</time>
      </trkpt>
      <trkpt lat="44.49624" lon="1.10844">
        <ele>96</ele>
        <time>2015-10-01T01:48:50Z</time>
      </trkpt>
      <trkpt lat="44.49633" lon="1.10833">
        <ele>96</ele>
      </trkpt>
      <trkpt lat="44.49645" lon="1.10839">
        <ele>96</ele>
        <time>2015-10-01T01:50:50Z</time>
      </trkpt>
      <trkpt lat="44.49655" lon="1.10868">
        <ele>96</ele>
      </trkpt>
      <trkpt lat="44.49718" lon="1.10906">
        <ele>95</ele>
        <time>2015-10-01T01:54:50Z</time>
      </trkpt>
      <trkpt lat="44.49765" lon="1.10916">
        <ele>95.5</ele>
        <time>2015-10-01T01:56:50Z</time>
      </trkpt>
      <trkpt lat="44.49827" lon="1.10894">
        <ele>93</ele>
        <time>2015-10-01T01:58:50Z</time>
      </trkpt>
      <trkpt lat="44.49861" lon="1.10875">
        <ele>93</ele>
        <time>2015-10-01T02:00:50Z</time>
      </trkpt>
      <trkpt lat="44.5006" lon="1.10789">
        <ele>89.8</ele>
        <time>2015-10-01T02:02:50Z</time>
      </trkpt>
      <trkpt lat="44.50044" lon="1.10941">
        <ele>91</ele>
        <time>2015-10-01T02:04:50Z</time>
      </trkpt>
      <trkpt lat="44.50134" lon="1.10958">
        <ele>90.5</ele>
      </trkpt>
      <trkpt lat="44.50275" lon="1.10965">
        <ele>86.7</ele>
      </trkpt>
      <trkpt lat="44.50328" lon="1.10951">
        <ele>86</ele>
        <time>2015-10-01T02:10:50Z</time>
      </trkpt>
      <trkpt lat="44.5043" lon="1.10875">
        <ele>85.8</ele>
      </trkpt>
      <trkpt lat="44.50519" lon="1.10803">
        <ele>84.3</ele>
        <time>2015-10-01T02:12:50Z</time>
      </trkpt>
      <trkpt lat="44.50532" lon="1.10948">
        <ele>87</ele>
        <time>2015-10-01T02:14:50Z</time>
      </trkpt>
      <trkpt lat="44.50547" lon="1.11047">
        <ele>86</ele>
        <time>2015-10-01T02:16:50Z</time>
      </trkpt>
      <trkpt lat="44.50583" lon="1.11334">
        <ele>86</ele>
        <time>2015-10-01T02:18:50Z</time>
      </trkpt>
      <trkpt lat="44.50695" lon="1.11321">
        <ele>85</ele>
      </trkpt>
      <trkpt lat="44.5074" lon="1.11314">
        <ele>84</ele>
        <time>2015-10-01T02:20:50Z</time>
      </trkpt>
      <trkpt lat="44.50755" lon="1.11329">
        <ele>83.8</ele>
      </trkpt>
      <trkpt lat="44.50772" lon="1.11556">
        <ele>84</ele>
      </trkpt>
      <trkpt lat="44.50794" lon="1.11852">
        <ele>83.4</ele>
      </trkpt>
      <trkpt lat="44.50799" lon="1.11973">
        <ele>83.2</ele>
        <time>2015-10-01T02:24:50Z</time>
      </trkpt>
      <trkpt lat="44.50929" lon="1.11992">
        <ele>80.7</ele>
        <time>2015-10-01T02:26:50Z</time>
      </trkpt>
      <trkpt lat="44.50927" lon="1.1203">
        <ele>80</ele>
      </trkpt>
      <trkpt lat="44.50962" lon="1.12039">
        <ele>77.6</ele>
      </trkpt>
      <trkpt lat="44.50967" lon="1.1207">
        <ele>78.8</ele>
      </trkpt>
      <trkpt lat="44.50969" lon="1.123">
        <ele>76.8</ele>
        <time>2015-10-01T02:28:50Z</time>
      </trkpt>
      <trkpt lat="44.50935" lon="1.12438">
        <ele>77.7</ele>
        <time>2015-10-01T02:32:50Z</time>
      </trkpt>
      <trkpt lat="44.50889" lon="1.12626">
        <ele>78.9</ele>
      </trkpt>
      <trkpt lat="44.50859" lon="1.12678">
        <ele>77.5</ele>
        <time>2015-10-01T02:34:50Z</time>
      </trkpt>
      <trkpt lat="44.50819" lon="1.12783">
        <ele>77.1</ele>
        <time>2015-10-01T02:36:50Z</time>
      </trkpt>
      <trkpt lat="44.5075" lon="1.12944">
        <ele>77.1</ele>
      </trkpt>
      <trkpt lat="44.50703" lon="1.13035">
        <ele>76.4</ele>
      </trkpt>
      <trkpt lat="44.50677" lon="1.13071">
        <ele>78.5</ele>
        <time>2015-10-01T02:38:50Z</time>
      </trkpt>
      <trkpt lat="44.50624" lon="1.13101">
        <ele>80.4</ele>
      </trkpt>
      <trkpt lat="44.50577" lon="1.13139">
        <ele>78.4</ele>
        <time>2015-10-01T02:40:50Z</time>
      </trkpt>
      <trkpt lat="44.50533" lon="1.13176">
        <ele>78.1</ele>
      </trkpt>
      <trkpt lat="44.50467" lon="1.13295">
        <ele>79.1</ele>
      </trkpt>
      <trkpt lat="44.50377" lon="1.13406">
        <ele>80.7</ele>
        <time>2015-10-01T02:42:50Z</time>
        <extensions>
          <visugpx:TrkExtension xmlns:visugpx="https://www.visugpx.com/editgpx/">
            <visugpx:node>1</visugpx:node>
            </visugpx:TrkExtension>
        </extensions>
      </trkpt>
    </trkseg>
  </trk>
</gpx>